createdAt,value
2018-06-30T00:16:24.486Z,17.40
2018-06-30T00:18:52.803Z,17.40
2018-06-30T00:21:21.150Z,17.60
2018-06-30T00:23:49.490Z,17.50
2018-06-30T00:28:45.620Z,17.40
2018-06-30T00:31:13.733Z,17.40
2018-06-30T00:33:42.139Z,17.50
2018-06-30T00:38:38.268Z,17.60
2018-06-30T00:46:02.599Z,17.90
2018-06-30T00:48:30.883Z,17.90
2018-06-30T00:53:27.804Z,17.80
2018-06-30T00:58:24.241Z,17.80
2018-06-30T01:00:52.777Z,17.80
2018-06-30T01:03:21.145Z,17.80
2018-06-30T01:05:49.579Z,17.90
2018-06-30T01:08:17.891Z,18.00
2018-06-30T01:10:46.348Z,18.00
2018-06-30T01:13:14.663Z,18.00
2018-06-30T01:18:10.788Z,17.90
2018-06-30T01:23:06.891Z,17.80
2018-06-30T01:25:34.966Z,18.00
2018-06-30T01:32:59.632Z,18.00
2018-06-30T01:35:27.874Z,18.00
2018-06-30T01:37:56.272Z,18.10
2018-06-30T01:40:24.651Z,18.10
2018-06-30T01:42:52.979Z,18.10
2018-06-30T01:45:21.110Z,18.00
2018-06-30T01:50:17.301Z,18.00
2018-06-30T01:52:45.670Z,18.00
2018-06-30T01:57:41.838Z,18.00
2018-06-30T02:00:10.158Z,18.00
2018-06-30T02:02:38.538Z,18.00
2018-06-30T02:07:34.590Z,17.90
2018-06-30T02:10:02.748Z,17.90
2018-06-30T02:17:28.178Z,17.90
2018-06-30T02:19:56.550Z,17.90
2018-06-30T02:24:52.745Z,17.90
2018-06-30T02:27:21.257Z,17.80
2018-06-30T02:29:49.408Z,17.80
2018-06-30T02:34:45.606Z,17.80
2018-06-30T02:37:13.962Z,18.00
2018-06-30T02:39:42.333Z,18.00
2018-06-30T02:47:07.250Z,18.10
2018-06-30T02:49:35.586Z,18.10
2018-06-30T02:52:04.005Z,18.10
2018-06-30T02:54:32.532Z,18.10
2018-06-30T02:57:00.651Z,18.10
2018-06-30T03:01:56.842Z,18.20
2018-06-30T03:06:53.013Z,18.10
2018-06-30T03:09:21.396Z,18.20
2018-06-30T03:11:49.480Z,18.30
2018-06-30T03:14:17.709Z,18.40
2018-06-30T03:16:45.941Z,18.30
2018-06-30T03:19:14.212Z,18.30
2018-06-30T03:21:42.402Z,18.20
2018-06-30T03:24:10.903Z,18.20
2018-06-30T03:26:38.939Z,18.10
2018-06-30T03:29:07.175Z,18.10
2018-06-30T03:31:35.482Z,18.20
2018-06-30T03:34:03.589Z,18.20
2018-06-30T03:36:31.605Z,18.20
2018-06-30T03:39:00.039Z,18.30
2018-06-30T03:43:57.053Z,18.30
2018-06-30T03:46:25.269Z,18.30
2018-06-30T03:48:53.473Z,18.40
2018-06-30T03:51:21.843Z,18.40
2018-06-30T03:53:50.050Z,18.40
2018-06-30T03:56:18.375Z,18.30
2018-06-30T03:58:46.745Z,18.40
2018-06-30T04:01:14.913Z,18.30
2018-06-30T04:03:43.314Z,18.20
2018-06-30T04:06:11.957Z,18.10
2018-06-30T04:08:40.373Z,18.10
2018-06-30T04:11:08.626Z,18.00
2018-06-30T04:13:36.711Z,18.10
2018-06-30T04:16:05.122Z,18.10
2018-06-30T04:21:01.284Z,18.20
2018-06-30T04:23:29.674Z,18.30
2018-06-30T04:28:25.872Z,18.20
2018-06-30T04:33:22.628Z,18.50
2018-06-30T04:38:18.646Z,18.30
2018-06-30T04:40:47.013Z,18.30
2018-06-30T04:43:15.064Z,18.40
2018-06-30T04:45:43.175Z,18.40
2018-06-30T04:48:11.206Z,18.40
2018-06-30T04:53:07.661Z,18.50
2018-06-30T04:55:35.864Z,18.60
2018-06-30T04:58:04.246Z,18.60
2018-06-30T05:03:00.570Z,18.60
2018-06-30T05:05:28.627Z,18.70
2018-06-30T05:07:56.696Z,18.70
2018-06-30T05:10:24.962Z,18.70
2018-06-30T05:12:54.249Z,18.70
2018-06-30T05:15:22.405Z,18.60
2018-06-30T05:17:50.822Z,18.70
2018-06-30T05:20:18.893Z,18.70
2018-06-30T05:22:46.969Z,18.60
2018-06-30T05:30:11.686Z,18.30
2018-06-30T05:35:07.763Z,18.10
2018-06-30T05:40:04.259Z,18.00
2018-06-30T05:42:32.497Z,18.00
2018-06-30T05:47:28.678Z,18.10
2018-06-30T05:49:57.155Z,18.20
2018-06-30T05:52:25.509Z,18.20
2018-06-30T05:54:53.617Z,18.40
2018-06-30T05:57:21.812Z,18.60
2018-06-30T05:59:49.866Z,18.70
2018-06-30T06:02:18.106Z,18.70
2018-06-30T06:09:43.983Z,18.90
2018-06-30T06:12:12.120Z,18.90
2018-06-30T06:14:40.493Z,19.00
2018-06-30T06:17:08.598Z,18.90
2018-06-30T06:24:33.023Z,19.00
2018-06-30T06:29:29.177Z,19.20
2018-06-30T06:31:57.271Z,19.30
2018-06-30T06:41:49.955Z,19.60
2018-06-30T06:44:19.221Z,19.70
2018-06-30T06:46:47.709Z,19.60
2018-06-30T06:49:15.926Z,19.60
2018-06-30T06:54:12.210Z,19.50
2018-06-30T07:01:36.455Z,19.50
2018-06-30T07:04:04.699Z,19.60
2018-06-30T07:13:56.845Z,19.70
2018-06-30T07:21:22.113Z,20.00
2018-06-30T07:26:18.301Z,20.20
2018-06-30T07:28:47.714Z,20.30
2018-06-30T07:31:15.969Z,20.30
2018-06-30T07:36:12.032Z,20.30
2018-06-30T07:38:40.211Z,20.20
2018-06-30T07:41:08.540Z,20.10
2018-06-30T07:43:36.854Z,20.00
2018-06-30T07:48:33.112Z,20.10
2018-06-30T07:51:01.410Z,20.20
2018-06-30T07:53:29.598Z,20.20
2018-06-30T07:55:57.861Z,20.30
2018-06-30T08:00:54.417Z,20.40
2018-06-30T08:03:22.754Z,20.60
2018-06-30T08:05:51.319Z,20.70
2018-06-30T08:08:19.987Z,20.80
2018-06-30T08:10:48.412Z,20.90
2018-06-30T08:15:45.643Z,21.10
2018-06-30T08:18:13.976Z,21.20
2018-06-30T08:20:42.373Z,21.20
2018-06-30T08:23:10.400Z,21.20
2018-06-30T08:25:38.753Z,21.20
2018-06-30T08:28:07.217Z,21.20
2018-06-30T08:30:35.499Z,21.30
2018-06-30T08:40:27.932Z,21.70
2018-06-30T08:45:25.541Z,22.00
2018-06-30T08:47:53.893Z,22.10
2018-06-30T08:50:23.177Z,22.20
2018-06-30T08:52:51.589Z,22.20
2018-06-30T08:57:49.048Z,22.40
2018-06-30T09:00:17.260Z,22.40
2018-06-30T09:02:45.815Z,22.30
2018-06-30T09:05:14.137Z,22.30
2018-06-30T09:10:10.528Z,22.20
2018-06-30T09:12:38.974Z,22.10
2018-06-30T09:20:03.560Z,22.10
2018-06-30T09:22:31.766Z,22.20
2018-06-30T09:25:00.191Z,22.30
2018-06-30T09:27:28.481Z,22.40
2018-06-30T09:29:56.918Z,22.30
2018-06-30T09:32:25.383Z,22.40
2018-06-30T09:34:53.646Z,22.40
2018-06-30T09:37:22.111Z,22.50
2018-06-30T09:39:50.454Z,22.40
2018-06-30T09:42:19.865Z,22.40
2018-06-30T09:47:16.239Z,22.60
2018-06-30T09:49:44.608Z,22.70
2018-06-30T09:52:12.955Z,22.80
2018-06-30T09:54:41.350Z,22.70
2018-06-30T09:57:09.670Z,22.90
2018-06-30T09:59:38.140Z,22.80
2018-06-30T10:04:34.536Z,22.70
2018-06-30T10:07:02.998Z,22.80
2018-06-30T10:09:31.279Z,22.80
2018-06-30T10:11:59.614Z,22.80
2018-06-30T10:14:28.096Z,23.00
2018-06-30T10:16:56.808Z,23.10
2018-06-30T10:19:25.146Z,23.30
2018-06-30T10:21:53.554Z,23.50
2018-06-30T10:24:21.848Z,23.60
2018-06-30T10:26:50.181Z,23.60
2018-06-30T10:29:18.673Z,23.70
2018-06-30T10:34:16.086Z,24.00
2018-06-30T10:36:44.597Z,24.10
2018-06-30T10:39:13.803Z,24.20
2018-06-30T10:41:44.239Z,24.40
2018-06-30T10:44:12.646Z,24.40
2018-06-30T10:46:40.950Z,24.30
2018-06-30T10:51:37.460Z,24.20
2018-06-30T10:54:06.024Z,24.10
2018-06-30T10:56:34.608Z,24.10
2018-06-30T11:01:35.374Z,24.30
2018-06-30T11:04:03.741Z,24.50
2018-06-30T11:11:30.137Z,25.00
2018-06-30T11:13:58.427Z,25.20
2018-06-30T11:16:26.788Z,25.50
2018-06-30T11:18:55.075Z,25.90
2018-06-30T11:23:52.134Z,26.50
2018-06-30T11:29:48.858Z,27.80
2018-06-30T11:32:17.538Z,27.50
2018-06-30T11:34:45.906Z,27.00
2018-06-30T11:44:07.026Z,26.30
2018-06-30T11:46:35.645Z,26.30
2018-06-30T11:49:04.833Z,26.30
2018-06-30T11:51:33.364Z,26.30
2018-06-30T11:54:02.157Z,26.40
2018-06-30T12:01:28.410Z,26.50
2018-06-30T12:03:56.878Z,26.50
2018-06-30T12:08:53.633Z,26.70
2018-06-30T12:11:22.642Z,26.90
2018-06-30T12:13:52.059Z,26.90
2018-06-30T12:16:20.537Z,27.00
2018-06-30T12:18:49.114Z,27.00
2018-06-30T12:21:17.978Z,27.10
2018-06-30T12:23:46.870Z,27.10
2018-06-30T12:28:43.934Z,27.80
2018-06-30T12:31:12.490Z,27.90
2018-06-30T12:33:41.066Z,27.90
2018-06-30T12:36:09.467Z,27.80
2018-06-30T12:38:38.254Z,27.80
2018-06-30T12:43:35.265Z,28.00
2018-06-30T12:46:03.837Z,27.70
2018-06-30T12:48:32.687Z,27.50
2018-06-30T12:51:01.283Z,27.20
2018-06-30T12:53:29.798Z,27.10
2018-06-30T12:55:58.426Z,27.10
2018-06-30T12:58:26.812Z,27.00
2018-06-30T13:00:55.386Z,27.00
2018-06-30T13:03:23.726Z,27.00
2018-06-30T13:05:52.107Z,26.90
2018-06-30T13:10:50.158Z,26.90
2018-06-30T13:13:18.755Z,26.90
2018-06-30T13:15:47.487Z,26.90
2018-06-30T13:18:16.343Z,26.90
2018-06-30T13:20:44.519Z,27.00
2018-06-30T13:23:12.984Z,27.00
2018-06-30T13:25:41.359Z,27.00
2018-06-30T13:28:10.110Z,27.00
2018-06-30T13:33:07.114Z,27.00
2018-06-30T13:38:03.911Z,27.00
2018-06-30T13:43:00.730Z,26.90
2018-06-30T13:45:29.256Z,26.90
2018-06-30T13:50:26.263Z,26.90
2018-06-30T13:52:55.831Z,26.90
2018-06-30T13:57:02.142Z,28.20
2018-06-30T13:59:30.504Z,28.10
2018-06-30T14:06:54.247Z,28.10
2018-06-30T14:11:50.858Z,27.70
2018-06-30T14:14:19.637Z,27.60
2018-06-30T14:19:16.038Z,27.50
2018-06-30T14:21:44.327Z,27.40
2018-06-30T14:24:12.721Z,27.30
2018-06-30T14:29:09.116Z,27.10
2018-06-30T14:31:37.461Z,27.20
2018-06-30T14:34:05.695Z,27.10
2018-06-30T14:36:33.993Z,27.00
2018-06-30T14:39:02.410Z,27.00
2018-06-30T14:41:30.759Z,26.90
2018-06-30T14:43:59.197Z,26.80
2018-06-30T14:46:27.466Z,26.90
2018-06-30T14:48:55.873Z,26.90
2018-06-30T14:51:24.197Z,26.80
2018-06-30T14:53:52.350Z,26.60
2018-06-30T14:56:20.606Z,26.20
2018-06-30T15:01:17.129Z,25.00
2018-06-30T15:03:45.469Z,24.70
2018-06-30T15:11:10.066Z,23.90
2018-06-30T15:13:38.403Z,23.50
2018-06-30T15:21:03.343Z,23.00
2018-06-30T15:23:31.606Z,22.90
2018-06-30T15:26:00.091Z,22.80
2018-06-30T15:28:28.302Z,22.80
2018-06-30T15:30:56.447Z,22.70
2018-06-30T15:33:24.768Z,22.70
2018-06-30T15:35:52.914Z,22.70
2018-06-30T15:38:21.230Z,22.80
2018-06-30T15:40:49.375Z,22.70
2018-06-30T15:43:18.133Z,22.70
2018-06-30T15:48:14.465Z,22.60
2018-06-30T15:50:42.810Z,22.60
2018-06-30T15:53:10.966Z,22.50
2018-06-30T15:55:39.241Z,22.50
2018-06-30T15:58:07.303Z,22.50
2018-06-30T16:00:35.509Z,22.60
2018-06-30T16:03:03.841Z,22.60
2018-06-30T16:05:32.256Z,22.60
2018-06-30T16:08:00.547Z,22.50
2018-06-30T16:10:28.659Z,22.50
2018-06-30T16:12:57.059Z,22.50
2018-06-30T16:17:53.178Z,22.50
2018-06-30T16:20:21.597Z,22.60
2018-06-30T16:22:49.853Z,22.60
2018-06-30T16:25:18.064Z,22.60
2018-06-30T16:27:46.456Z,22.70
2018-06-30T16:30:14.592Z,22.80
2018-06-30T16:32:42.884Z,22.80
2018-06-30T16:35:11.195Z,22.80
2018-06-30T16:37:40.201Z,22.80
2018-06-30T16:40:08.413Z,22.90
2018-06-30T16:42:36.714Z,22.80
2018-06-30T16:45:05.135Z,22.90
2018-06-30T16:47:33.374Z,22.90
2018-06-30T16:52:29.542Z,22.80
2018-06-30T16:54:57.950Z,22.70
2018-06-30T16:57:26.261Z,22.60
2018-06-30T16:59:54.347Z,22.40
2018-06-30T17:02:23.269Z,22.30
2018-06-30T17:07:19.382Z,22.20
2018-06-30T17:12:15.725Z,22.10
2018-06-30T17:14:43.995Z,22.10
2018-06-30T17:17:12.128Z,21.90
2018-06-30T17:22:08.224Z,21.80
2018-06-30T17:27:05.798Z,21.80
2018-06-30T17:29:33.975Z,21.80
2018-06-30T17:32:02.347Z,21.70
2018-06-30T17:34:30.415Z,21.60
2018-06-30T17:36:58.527Z,21.60
2018-06-30T17:41:54.609Z,21.60
2018-06-30T17:44:22.744Z,21.60
2018-06-30T17:46:51.098Z,21.50
2018-06-30T17:49:19.474Z,21.50
2018-06-30T17:51:48.658Z,21.40
2018-06-30T17:54:16.834Z,21.40
2018-06-30T17:56:45.001Z,21.30
2018-06-30T17:59:13.323Z,21.30
2018-06-30T18:01:41.635Z,21.30
2018-06-30T18:04:09.772Z,21.30
2018-06-30T18:06:38.194Z,21.30
2018-06-30T18:09:09.588Z,21.20
2018-06-30T18:11:37.965Z,21.20
2018-06-30T18:16:34.342Z,21.00
2018-06-30T18:19:02.479Z,21.00
2018-06-30T18:26:26.614Z,20.80
2018-06-30T18:28:54.822Z,20.80
2018-06-30T18:31:23.085Z,20.70
2018-06-30T18:33:51.175Z,20.70
2018-06-30T18:36:19.287Z,20.70
2018-06-30T18:38:47.690Z,20.60
2018-06-30T18:41:15.778Z,20.70
2018-06-30T18:43:44.088Z,20.60
2018-06-30T18:46:12.194Z,20.60
2018-06-30T18:51:08.354Z,20.50
2018-06-30T18:53:36.711Z,20.50
2018-06-30T18:58:32.816Z,20.40
2018-06-30T19:03:30.027Z,20.40
2018-06-30T19:05:58.338Z,20.40
2018-06-30T19:08:26.675Z,20.40
2018-06-30T19:15:50.855Z,20.40
2018-06-30T19:18:19.246Z,20.40
2018-06-30T19:20:47.275Z,20.40
2018-06-30T19:28:12.244Z,20.30
2018-06-30T19:30:40.567Z,20.30
2018-06-30T19:38:04.762Z,20.10
2018-06-30T19:43:00.833Z,20.10
2018-06-30T19:45:28.933Z,20.10
2018-06-30T19:47:57.002Z,20.00
2018-06-30T19:50:25.147Z,20.00
2018-06-30T19:52:53.538Z,20.00
2018-06-30T19:55:21.994Z,20.00
2018-06-30T19:57:51.184Z,19.90
2018-06-30T20:02:47.315Z,19.90
2018-06-30T20:07:55.323Z,19.80
2018-06-30T20:12:52.755Z,19.60
2018-06-30T20:15:20.963Z,19.60
2018-06-30T20:17:50.887Z,19.60
2018-06-30T20:20:19.151Z,19.60
2018-06-30T20:22:47.610Z,19.50
2018-06-30T20:25:15.873Z,19.40
2018-06-30T20:27:43.950Z,19.40
2018-06-30T20:30:12.176Z,19.40
2018-06-30T20:40:05.055Z,19.60
2018-06-30T20:42:33.363Z,19.60
2018-06-30T20:45:01.477Z,19.60
2018-06-30T20:47:29.879Z,19.60
2018-06-30T20:49:58.238Z,19.60
2018-06-30T20:52:26.488Z,19.50
2018-06-30T20:54:54.666Z,19.40
2018-06-30T20:57:22.986Z,19.40
2018-06-30T20:59:51.487Z,19.60
2018-06-30T21:02:20.629Z,19.70
2018-06-30T21:04:49.059Z,19.70
2018-06-30T21:07:17.426Z,19.60
2018-06-30T21:09:45.792Z,19.50
2018-06-30T21:12:14.270Z,19.40
2018-06-30T21:14:42.562Z,19.50
2018-06-30T21:17:10.964Z,19.50
2018-06-30T21:22:07.204Z,19.40
2018-06-30T21:24:35.422Z,19.30
2018-06-30T21:27:03.513Z,19.30
2018-06-30T21:31:59.619Z,19.10
2018-06-30T21:34:27.748Z,19.20
2018-06-30T21:36:56.104Z,19.30
2018-06-30T21:39:24.217Z,19.40
2018-06-30T21:41:52.567Z,19.30
2018-06-30T21:44:20.955Z,19.30
2018-06-30T21:46:49.387Z,19.10
2018-06-30T21:49:17.684Z,19.00
2018-06-30T21:54:13.856Z,18.80
2018-06-30T21:56:42.366Z,18.70
2018-06-30T21:59:10.665Z,18.60
2018-06-30T22:01:39.518Z,18.60
2018-06-30T22:04:07.840Z,18.50
2018-06-30T22:06:36.058Z,18.50
2018-06-30T22:09:06.938Z,18.50
2018-06-30T22:11:35.283Z,18.50
2018-06-30T22:18:59.393Z,18.30
2018-06-30T22:23:55.534Z,18.30
2018-06-30T22:26:23.708Z,18.20
2018-06-30T22:28:52.069Z,18.20
2018-06-30T22:31:20.576Z,18.20
2018-06-30T22:41:13.004Z,18.30
2018-06-30T22:46:09.156Z,18.30
2018-06-30T22:48:37.268Z,18.40
2018-06-30T22:51:05.706Z,18.30
2018-06-30T22:53:34.026Z,18.30
2018-06-30T23:00:57.934Z,18.20
2018-06-30T23:05:54.024Z,18.20
2018-06-30T23:08:22.350Z,18.20
2018-06-30T23:10:50.474Z,18.20
2018-06-30T23:15:47.007Z,18.20
2018-06-30T23:18:15.413Z,18.20
2018-06-30T23:20:43.726Z,18.30
2018-06-30T23:23:12.354Z,18.20
2018-06-30T23:25:40.962Z,18.20
2018-06-30T23:28:09.225Z,18.20
2018-06-30T23:30:37.510Z,18.30
2018-06-30T23:35:34.715Z,18.20
2018-06-30T23:38:03.683Z,18.20
2018-06-30T23:40:32.048Z,18.30
2018-06-30T23:43:00.380Z,18.30
2018-06-30T23:45:28.726Z,18.30
2018-06-30T23:47:58.034Z,18.30
2018-06-30T23:50:26.429Z,18.30
2018-06-30T23:52:54.994Z,18.30
2018-06-30T23:55:23.142Z,18.30
2018-06-30T23:57:52.091Z,18.30
